Time;durP1;ratioP1;P1;durP2;ratioP2;P2;SDS_P1;SDS_P2;PMS_P1;PMS_P2;Temp;Humidity;BMP_temperature;BMP_pressure;BME280_temperature;BME280_humidity;BME280_pressure;Samples;Min_cycle;Max_cycle;Signal;HPM_P1;HPM_P2
2021/06/08 00:00:00;;;;;;;4.35;3.95;;;;;;;21.23;44.24;101572.97;696346;28;22413;-65
2021/06/08 00:00:22;;;;;;;4.55;4.20;;;;;;;21.25;44.17;101578.22;693389;28;20913;-65
2021/06/08 00:00:43;;;;;;;5.03;4.63;;;;;;;21.24;44.34;101577.41;692422;28;62724;-65
2021/06/08 00:01:05;;;;;;;5.00;4.60;;;;;;;21.26;44.06;101577.16;693860;28;17874;-65
2021/06/08 00:01:26;;;;;;;4.93;4.43;;;;;;;21.25;44.40;101578.22;693337;28;22198;-65
2021/06/08 00:01:48;;;;;;;4.68;4.30;;;;;;;21.24;44.36;101571.06;693057;28;22473;-65
2021/06/08 00:02:10;;;;;;;4.50;4.10;;;;;;;21.25;44.35;101580.97;693795;28;45261;-65
2021/06/08 00:02:31;;;;;;;4.40;4.10;;;;;;;21.25;44.47;101575.47;694844;28;44130;-65
2021/06/08 00:02:53;;;;;;;4.70;4.30;;;;;;;21.24;44.45;101577.41;696556;28;24076;-65
2021/06/08 00:03:14;;;;;;;4.55;4.25;;;;;;;21.24;44.54;101579.31;694910;28;33796;-65
2021/06/08 00:03:35;;;;;;;4.40;4.10;;;;;;;21.24;44.54;101579.31;696607;28;22414;-65
2021/06/08 00:03:56;;;;;;;4.70;4.40;;;;;;;21.22;44.67;101571.31;696526;28;22404;-65
2021/06/08 00:04:17;;;;;;;4.70;4.30;;;;;;;21.21;44.62;101574.28;696331;28;23434;-65
2021/06/08 00:04:38;;;;;;;4.78;4.32;;;;;;;21.18;44.40;101578.31;696674;28;22465;-65
2021/06/08 00:05:00;;;;;;;4.90;4.40;;;;;;;21.17;44.24;101584.03;696800;28;23521;-65
2021/06/08 00:05:22;;;;;;;4.90;4.50;;;;;;;21.14;44.43;101574.31;695819;28;46490;-65
2021/06/08 00:05:43;;;;;;;4.90;4.50;;;;;;;21.14;44.41;101579.81;695430;28;43697;-65
2021/06/08 00:06:04;;;;;;;5.25;4.75;;;;;;;21.15;44.34;101580.69;696363;28;14625;-64
2021/06/08 00:06:26;;;;;;;4.32;4.03;;;;;;;21.17;44.30;101576.63;696950;28;5905;-65
2021/06/08 00:06:49;;;;;;;4.75;4.32;;;;;;;21.17;44.02;101576.63;696484;28;21894;-65
2021/06/08 00:07:11;;;;;;;4.68;4.20;;;;;;;21.19;43.88;101581.88;693675;28;93083;-65
2021/06/08 00:07:32;;;;;;;4.80;4.40;;;;;;;21.18;44.30;101582.97;696521;28;21542;-65
2021/06/08 00:07:53;;;;;;;4.80;4.40;;;;;;;21.19;44.13;101577.25;696648;28;22398;-65
2021/06/08 00:08:14;;;;;;;5.18;4.50;;;;;;;21.18;44.14;101581.06;696460;28;18334;-65
2021/06/08 00:08:35;;;;;;;4.75;4.30;;;;;;;21.18;44.14;101580.22;695318;28;39949;-65
2021/06/08 00:08:56;;;;;;;4.57;4.10;;;;;;;21.18;44.29;101580.22;696987;28;12622;-65
2021/06/08 00:09:17;;;;;;;4.82;4.43;;;;;;;21.17;44.23;101581.28;695852;28;23512;-65
2021/06/08 00:09:38;;;;;;;4.50;4.20;;;;;;;21.16;44.57;101588.69;696621;28;14453;-65
2021/06/08 00:10:00;;;;;;;4.60;4.30;;;;;;;21.16;44.20;101585.09;695907;28;22395;-65
2021/06/08 00:10:22;;;;;;;4.53;4.22;;;;;;;21.14;44.57;101587.22;696675;28;22456;-65
2021/06/08 00:10:43;;;;;;;4.88;4.32;;;;;;;21.15;44.63;101583.44;695323;28;47136;-65
2021/06/08 00:11:04;;;;;;;5.38;4.30;;;;;;;21.13;44.59;101580.91;696171;28;22377;-65
2021/06/08 00:11:25;;;;;;;4.53;4.22;;;;;;;21.15;44.60;101589.75;696380;28;23457;-65
2021/06/08 00:11:46;;;;;;;4.60;4.30;;;;;;;21.15;44.35;101587.00;695538;28;22529;-65
2021/06/08 00:12:08;;;;;;;4.70;4.30;;;;;;;21.17;44.48;101590.34;695613;28;45308;-65
2021/06/08 00:12:29;;;;;;;6.45;4.53;;;;;;;21.17;44.24;101584.88;695703;28;46437;-65
2021/06/08 00:12:50;;;;;;;5.38;4.40;;;;;;;21.19;44.28;101595.63;696972;28;13345;-65
2021/06/08 00:13:11;;;;;;;6.32;4.57;;;;;;;21.18;44.39;101591.22;696565;28;23370;-65
2021/06/08 00:13:33;;;;;;;4.82;4.30;;;;;;;21.18;44.33;101589.31;696011;28;19253;-65
2021/06/08 00:13:54;;;;;;;5.10;4.60;;;;;;;21.19;44.12;101592.88;695480;28;46318;-65
2021/06/08 00:14:15;;;;;;;4.78;4.47;;;;;;;21.20;44.21;101595.41;696647;28;13845;-65
2021/06/08 00:14:36;;;;;;;4.80;4.30;;;;;;;21.20;44.09;101589.91;696552;28;22398;-65
2021/06/08 00:14:57;;;;;;;4.80;4.40;;;;;;;21.22;43.78;101590.53;696529;28;22340;-65
2021/06/08 00:15:19;;;;;;;4.80;4.40;;;;;;;21.23;44.00;101592.19;695767;28;22183;-65
2021/06/08 00:15:40;;;;;;;4.45;4.10;;;;;;;21.23;44.01;101589.44;695589;28;46492;-65
2021/06/08 00:16:02;;;;;;;4.70;4.30;;;;;;;21.22;44.25;101592.41;696544;28;22396;-65
2021/06/08 00:16:23;;;;;;;4.72;4.35;;;;;;;21.22;44.30;101592.41;696698;28;7744;-65
2021/06/08 00:16:44;;;;;;;4.68;4.28;;;;;;;21.22;44.24;101592.41;695029;28;41781;-65
2021/06/08 00:17:06;;;;;;;4.75;4.35;;;;;;;21.22;44.44;101593.28;696674;28;23474;-65
2021/06/08 00:17:27;;;;;;;4.78;4.38;;;;;;;21.22;44.59;101590.53;693865;28;23526;-65
2021/06/08 00:17:48;;;;;;;4.97;4.40;;;;;;;21.22;44.66;101589.69;693513;28;14417;-65
2021/06/08 00:18:09;;;;;;;4.70;4.40;;;;;;;21.20;44.63;101589.91;693911;28;22315;-65
2021/06/08 00:18:31;;;;;;;4.80;4.40;;;;;;;21.18;44.57;101593.97;693449;28;21423;-65
2021/06/08 00:18:52;;;;;;;4.40;4.10;;;;;;;21.15;44.69;101587.00;693121;28;46351;-65
2021/06/08 00:19:13;;;;;;;4.50;4.18;;;;;;;21.13;44.82;101585.53;694355;28;22430;-65
2021/06/08 00:19:34;;;;;;;4.40;4.10;;;;;;;21.11;45.03;101591.25;696174;28;5092;-65
2021/06/08 00:19:55;;;;;;;4.90;4.18;;;;;;;21.08;44.81;101591.72;697357;28;10931;-65
2021/06/08 00:20:16;;;;;;;5.43;4.30;;;;;;;21.05;45.10;101587.53;694522;28;43701;-65
2021/06/08 00:20:38;;;;;;;6.93;4.50;;;;;;;21.03;45.14;101581.44;695898;28;46577;-65
2021/06/08 00:20:59;;;;;;;5.53;4.65;;;;;;;21.04;44.98;101585.00;697350;28;23763;-65
2021/06/08 00:21:21;;;;;;;5.03;4.53;;;;;;;21.03;45.11;101589.69;696833;28;20563;-65
2021/06/08 00:21:42;;;;;;;5.00;4.60;;;;;;;21.03;45.11;101588.81;695859;28;45250;-65
2021/06/08 00:22:04;;;;;;;4.95;4.55;;;;;;;21.02;44.79;101587.97;697037;28;23535;-65
2021/06/08 00:22:26;;;;;;;4.85;4.38;;;;;;;21.02;45.07;101585.25;695726;28;45742;-65
2021/06/08 00:22:47;;;;;;;4.85;4.25;;;;;;;21.03;44.87;101586.06;695512;28;45262;-65
2021/06/08 00:23:08;;;;;;;4.85;4.30;;;;;;;21.03;44.79;101589.69;696978;28;21567;-65
2021/06/08 00:23:29;;;;;;;5.88;4.40;;;;;;;21.02;44.95;101589.91;695832;28;23397;-65
2021/06/08 00:23:51;;;;;;;4.95;4.20;;;;;;;21.01;44.82;101582.72;697400;28;19740;-65
2021/06/08 00:24:12;;;;;;;4.90;4.40;;;;;;;21.02;44.91;101589.91;696964;28;21316;-65
2021/06/08 00:24:33;;;;;;;5.60;4.30;;;;;;;21.01;44.85;101589.03;695407;28;45287;-65
2021/06/08 00:24:54;;;;;;;4.67;4.27;;;;;;;21.02;44.66;101593.47;695663;28;47203;-65
2021/06/08 00:25:15;;;;;;;4.90;4.20;;;;;;;21.02;44.82;101587.16;695853;28;46257;-65
2021/06/08 00:25:38;;;;;;;6.15;4.30;;;;;;;21.02;44.43;101589.91;693183;28;46382;-65
2021/06/08 00:25:59;;;;;;;4.70;4.35;;;;;;;21.02;44.69;101584.41;692243;28;69555;-65
2021/06/08 00:26:20;;;;;;;4.63;4.20;;;;;;;21.02;44.61;101584.41;690722;28;4614;-65
2021/06/08 00:26:42;;;;;;;4.90;4.40;;;;;;;21.02;44.74;101585.25;691813;28;22398;-65
2021/06/08 00:27:03;;;;;;;4.70;4.28;;;;;;;21.02;44.40;101592.66;688262;28;18984;-65
2021/06/08 00:27:24;;;;;;;6.13;4.55;;;;;;;21.02;44.48;101584.41;687870;28;46298;-65
2021/06/08 00:27:45;;;;;;;5.05;4.22;;;;;;;21.02;44.31;101589.91;691790;28;4697;-65
2021/06/08 00:28:09;;;;;;;4.55;4.15;;;;;;;21.02;44.23;101587.16;691692;28;23500;-65
2021/06/08 00:28:30;;;;;;;5.55;4.22;;;;;;;21.03;43.66;101588.81;690242;28;67985;-65
2021/06/08 00:28:51;;;;;;;4.72;4.20;;;;;;;21.03;43.88;101591.56;694666;28;23476;-65
2021/06/08 00:29:12;;;;;;;4.35;4.05;;;;;;;21.02;43.63;101587.16;696848;28;21561;-65
2021/06/08 00:29:33;;;;;;;4.30;4.00;;;;;;;21.02;43.96;101593.47;696599;28;23577;-65
2021/06/08 00:29:54;;;;;;;4.30;4.00;;;;;;;21.01;43.98;101589.03;697018;28;22402;-65
2021/06/08 00:30:16;;;;;;;4.40;4.10;;;;;;;21.03;44.10;101586.06;695354;28;44382;-65
2021/06/08 00:30:38;;;;;;;4.68;4.28;;;;;;;21.04;44.20;101590.50;695844;28;46371;-65
2021/06/08 00:30:59;;;;;;;4.68;4.10;;;;;;;21.02;44.24;101587.97;696946;28;15346;-65
2021/06/08 00:31:20;;;;;;;4.90;4.40;;;;;;;21.02;44.02;101589.91;696363;28;24362;-65
2021/06/08 00:31:41;;;;;;;4.55;4.20;;;;;;;21.01;44.25;101590.97;696588;28;23445;-65
2021/06/08 00:32:03;;;;;;;4.32;4.03;;;;;;;21.00;44.16;101586.53;696650;28;24277;-65
2021/06/08 00:32:24;;;;;;;4.50;4.20;;;;;;;21.00;44.33;101590.13;696127;28;45411;-65
2021/06/08 00:32:45;;;;;;;4.45;4.07;;;;;;;20.99;44.51;101582.94;697339;28;23432;-65
2021/06/08 00:33:07;;;;;;;5.20;4.50;;;;;;;20.99;44.38;101582.13;697266;28;21564;-65
2021/06/08 00:33:28;;;;;;;5.22;4.57;;;;;;;20.97;44.59;101587.84;695828;28;46166;-65
2021/06/08 00:33:50;;;;;;;4.70;4.30;;;;;;;20.97;44.37;101587.84;696531;28;22162;-65
2021/06/08 00:34:11;;;;;;;4.68;4.35;;;;;;;20.97;44.27;101587.84;695398;28;45202;-65
2021/06/08 00:34:32;;;;;;;5.63;4.70;;;;;;;20.97;44.08;101592.47;696865;28;22390;-65
2021/06/08 00:34:54;;;;;;;4.90;4.40;;;;;;;20.95;43.95;101586.38;694301;28;21550;-65
2021/06/08 00:35:15;;;;;;;4.43;4.05;;;;;;;20.93;43.91;101594.81;694088;28;23479;-65
2021/06/08 00:35:36;;;;;;;4.32;4.03;;;;;;;20.92;44.12;101584.91;693223;28;47220;-65
2021/06/08 00:35:57;;;;;;;4.70;4.40;;;;;;;20.92;43.89;101589.56;694067;28;22420;-65
2021/06/08 00:36:18;;;;;;;4.40;4.10;;;;;;;20.91;43.89;101590.63;694349;28;4199;-65
2021/06/08 00:36:40;;;;;;;4.35;4.05;;;;;;;20.87;43.96;101588.31;694399;28;21535;-65
2021/06/08 00:37:02;;;;;;;4.40;4.00;;;;;;;20.90;44.18;101595.28;697329;28;1512;-65
2021/06/08 00:37:25;;;;;;;4.25;3.90;;;;;;;20.89;44.25;101599.06;697139;28;1322;-65
2021/06/08 00:37:46;;;;;;;4.63;4.22;;;;;;;20.89;44.32;101599.06;692684;28;67778;-66
2021/06/08 00:38:08;;;;;;;4.55;4.15;;;;;;;20.85;44.49;101590.47;694137;28;18657;-65
2021/06/08 00:38:29;;;;;;;4.65;4.25;;;;;;;20.84;44.37;101587.94;692946;28;24313;-65
2021/06/08 00:38:50;;;;;;;4.57;4.15;;;;;;;20.83;44.61;101595.34;693628;28;23516;-65
2021/06/08 00:39:11;;;;;;;4.57;4.15;;;;;;;20.83;44.81;101599.97;694392;28;1001;-65
2021/06/08 00:39:32;;;;;;;4.47;4.07;;;;;;;20.81;44.77;101602.13;693699;28;23402;-65
2021/06/08 00:39:53;;;;;;;4.68;4.30;;;;;;;20.80;44.55;101603.16;695847;28;45336;-65
2021/06/08 00:40:15;;;;;;;4.30;4.00;;;;;;;20.76;44.29;101600.03;696578;28;23566;-65
2021/06/08 00:40:41;;;;;;;4.40;4.10;;;;;;;20.73;44.21;101597.75;697102;28;22411;-65
2021/06/08 00:41:03;;;;;;;4.68;4.18;;;;;;;20.73;44.24;101599.66;692615;28;138263;-65
2021/06/08 00:41:35;;;;;;;4.68;4.00;;;;;;;20.70;44.20;101590.81;695897;28;46307;-65
2021/06/08 00:41:56;;;;;;;5.13;4.20;;;;;;;20.70;44.21;101596.31;691928;28;137737;-65
2021/06/08 00:42:26;;;;;;;4.45;4.15;;;;;;;20.70;44.54;101595.44;696816;28;23701;-65
2021/06/08 00:42:47;;;;;;;4.70;4.38;;;;;;;20.69;44.25;101600.09;692975;28;137745;-65
2021/06/08 00:43:08;;;;;;;5.10;4.60;;;;;;;20.68;44.59;101598.41;695965;28;21675;-65
2021/06/08 00:43:30;;;;;;;4.55;4.25;;;;;;;20.68;44.51;101601.16;696657;28;22407;-65
2021/06/08 00:43:51;;;;;;;4.68;4.28;;;;;;;20.68;44.53;101603.06;696960;28;22646;-65
2021/06/08 00:44:15;;;;;;;4.70;4.30;;;;;;;20.68;44.48;101600.31;695993;28;22257;-65
2021/06/08 00:44:36;;;;;;;4.50;4.20;;;;;;;20.67;44.54;101599.50;693491;28;92385;-65
2021/06/08 00:44:59;;;;;;;4.45;4.10;;;;;;;20.67;44.39;101607.72;694122;28;1099;-65
2021/06/08 00:45:22;;;;;;;4.40;4.00;;;;;;;20.67;44.41;101604.13;694470;28;960;-65
2021/06/08 00:45:43;;;;;;;4.60;4.30;;;;;;;20.65;44.25;101600.78;693525;28;43975;-65
2021/06/08 00:46:04;;;;;;;4.60;4.30;;;;;;;20.64;44.36;101599.94;693562;28;23770;-65
2021/06/08 00:46:26;;;;;;;5.40;4.38;;;;;;;20.63;44.35;101600.97;693932;28;4193;-65
2021/06/08 00:46:48;;;;;;;4.72;4.20;;;;;;;20.63;44.27;101594.66;695755;28;1793;-65
2021/06/08 00:47:09;;;;;;;4.57;4.28;;;;;;;20.62;44.62;101603.94;697021;28;21537;-65
2021/06/08 00:47:31;;;;;;;4.70;4.30;;;;;;;20.61;44.39;101602.25;697279;28;17221;-65
2021/06/08 00:47:52;;;;;;;4.90;4.50;;;;;;;20.60;44.37;101595.09;697252;28;23465;-66
2021/06/08 00:48:14;;;;;;;5.38;4.90;;;;;;;20.59;44.77;101599.72;697343;28;10758;-65
2021/06/08 00:48:36;;;;;;;4.95;4.45;;;;;;;20.58;44.79;101597.19;694378;28;70182;-65
2021/06/08 00:48:57;;;;;;;4.90;4.50;;;;;;;20.55;44.96;101600.38;697098;28;15067;-65
2021/06/08 00:49:18;;;;;;;5.68;4.60;;;;;;;20.52;45.19;101597.03;696452;28;16636;-65
2021/06/08 00:49:39;;;;;;;7.63;4.40;;;;;;;20.52;45.01;101590.72;696723;28;24314;-65
2021/06/08 00:50:00;;;;;;;7.43;4.53;;;;;;;20.50;45.07;101601.06;696600;28;23548;-65
2021/06/08 00:50:21;;;;;;;4.85;4.47;;;;;;;20.49;45.32;101602.13;697148;28;24497;-65
2021/06/08 00:50:42;;;;;;;5.13;4.72;;;;;;;20.48;45.59;101601.28;696120;28;46539;-65
2021/06/08 00:51:04;;;;;;;5.00;4.50;;;;;;;20.47;45.30;101596.00;697134;28;22254;-65
2021/06/08 00:51:25;;;;;;;4.97;4.47;;;;;;;20.46;45.43;101600.66;697720;28;914;-65
2021/06/08 00:51:46;;;;;;;5.43;4.93;;;;;;;20.46;45.55;101608.06;697040;28;16353;-65
2021/06/08 00:52:08;;;;;;;5.63;4.82;;;;;;;20.44;45.49;101605.53;696249;28;17718;-65
2021/06/08 00:52:30;;;;;;;5.28;4.78;;;;;;;20.41;45.45;101594.19;693058;28;45267;-65
2021/06/08 00:52:51;;;;;;;5.28;4.78;;;;;;;20.41;45.35;101602.41;692937;28;47338;-65
2021/06/08 00:53:13;;;;;;;5.13;4.67;;;;;;;20.40;45.49;101598.81;692443;28;45259;-65
2021/06/08 00:53:34;;;;;;;5.82;4.90;;;;;;;20.41;45.55;101602.41;689692;28;45318;-65
2021/06/08 00:53:55;;;;;;;5.30;4.85;;;;;;;20.41;45.60;101600.50;691575;28;21553;-65
2021/06/08 00:54:16;;;;;;;6.18;5.20;;;;;;;20.41;45.42;101603.25;691530;28;23552;-65
2021/06/08 00:54:37;;;;;;;5.53;5.05;;;;;;;20.43;45.44;101600.28;694201;28;22225;-65
2021/06/08 00:54:58;;;;;;;5.47;4.97;;;;;;;20.43;45.35;101600.28;693939;28;22419;-65
2021/06/08 00:55:20;;;;;;;5.22;4.80;;;;;;;20.41;45.72;101603.25;693904;28;22368;-66
2021/06/08 00:55:42;;;;;;;5.43;4.93;;;;;;;20.41;45.67;101603.25;695836;28;45292;-65
2021/06/08 00:56:03;;;;;;;5.53;5.00;;;;;;;20.39;45.42;101608.13;695878;28;45222;-65
2021/06/08 00:56:24;;;;;;;5.30;4.90;;;;;;;20.37;45.78;101599.25;697063;28;9284;-65
2021/06/08 00:56:46;;;;;;;5.50;4.85;;;;;;;20.38;45.86;101603.69;696867;28;22197;-65
2021/06/08 00:57:07;;;;;;;5.30;4.90;;;;;;;20.34;45.71;101597.81;696050;28;46308;-65
2021/06/08 00:57:29;;;;;;;5.35;4.90;;;;;;;20.34;45.86;101603.28;693642;28;23475;-65
2021/06/08 00:57:50;;;;;;;5.25;4.80;;;;;;;20.34;45.70;101602.44;693915;28;23410;-65
2021/06/08 00:58:11;;;;;;;5.75;5.25;;;;;;;20.33;46.18;101600.78;692749;28;44226;-65
2021/06/08 00:58:32;;;;;;;5.63;5.10;;;;;;;20.34;46.07;101606.03;693399;28;21518;-65
2021/06/08 00:58:53;;;;;;;5.40;4.90;;;;;;;20.34;45.98;101602.44;693853;28;17419;-65
2021/06/08 00:59:14;;;;;;;5.20;4.80;;;;;;;20.33;45.87;101598.03;694245;28;15559;-65
2021/06/08 00:59:36;;;;;;;6.05;5.07;;;;;;;20.34;46.11;101602.44;696977;28;2535;-65
2021/06/08 00:59:57;;;;;;;5.40;4.90;;;;;;;20.34;45.95;101602.44;696552;28;22478;-65
2021/06/08 01:00:19;;;;;;;5.57;5.13;;;;;;;20.34;45.99;101606.03;694832;28;22408;-65
2021/06/08 01:00:40;;;;;;;5.72;5.13;;;;;;;20.33;46.03;101596.13;695804;28;44356;-65
2021/06/08 01:01:01;;;;;;;5.50;5.00;;;;;;;20.32;45.92;101602.66;697585;28;12508;-65
2021/06/08 01:01:22;;;;;;;5.63;5.20;;;;;;;20.33;45.92;101595.28;695908;28;46347;-65
2021/06/08 01:01:44;;;;;;;5.55;5.05;;;;;;;20.33;46.24;101600.78;697731;28;2214;-65
2021/06/08 01:02:05;;;;;;;5.53;5.03;;;;;;;20.32;46.05;101605.41;696857;28;15746;-65
2021/06/08 01:02:26;;;;;;;5.70;5.20;;;;;;;20.33;45.97;101606.25;696281;28;20994;-65
2021/06/08 01:02:49;;;;;;;5.53;5.13;;;;;;;20.32;46.27;101607.31;696967;28;23128;-65
2021/06/08 01:03:10;;;;;;;5.30;4.85;;;;;;;20.31;46.16;101605.63;695702;28;58752;-65
2021/06/08 01:03:32;;;;;;;6.22;4.95;;;;;;;20.30;46.25;101606.69;696901;28;22404;-65
2021/06/08 01:03:53;;;;;;;6.40;5.40;;;;;;;20.31;46.20;101600.13;695797;28;46343;-65
2021/06/08 01:04:14;;;;;;;5.95;5.43;;;;;;;20.30;46.23;101603.97;696463;28;23453;-65
2021/06/08 01:04:35;;;;;;;6.05;5.55;;;;;;;20.29;46.43;101605.84;695766;28;23469;-65
2021/06/08 01:04:57;;;;;;;6.50;5.70;;;;;;;20.29;46.38;101607.75;696324;28;22405;-65
2021/06/08 01:05:18;;;;;;;5.82;5.32;;;;;;;20.27;46.19;101602.50;695342;28;45273;-65
2021/06/08 01:05:39;;;;;;;6.00;5.50;;;;;;;20.28;46.39;101600.56;697180;28;23463;-65
2021/06/08 01:06:00;;;;;;;6.38;5.72;;;;;;;20.28;46.40;101608.81;697017;28;23420;-65
2021/06/08 01:06:21;;;;;;;6.30;5.70;;;;;;;20.26;46.27;101595.31;695678;28;23480;-65
2021/06/08 01:06:47;;;;;;;6.15;5.47;;;;;;;20.27;46.37;101607.13;695547;28;36008;-65
2021/06/08 01:07:08;;;;;;;6.10;5.50;;;;;;;20.27;46.53;101607.13;692592;28;136422;-65
2021/06/08 01:07:32;;;;;;;6.03;5.32;;;;;;;20.25;46.32;101610.09;696129;28;22422;-65
2021/06/08 01:07:53;;;;;;;5.63;5.13;;;;;;;20.24;46.46;101600.19;693902;28;84380;-65
2021/06/08 01:08:15;;;;;;;5.70;5.18;;;;;;;20.25;46.37;101612.84;696398;28;21554;-65
2021/06/08 01:08:36;;;;;;;5.50;5.00;;;;;;;20.24;46.64;101605.66;696738;28;8237;-65
2021/06/08 01:08:57;;;;;;;5.72;5.22;;;;;;;20.22;46.50;101598.72;696164;28;17235;-65
2021/06/08 01:09:18;;;;;;;6.10;5.45;;;;;;;20.21;46.54;101597.06;696101;28;23519;-65
2021/06/08 01:09:39;;;;;;;6.30;5.20;;;;;;;20.21;46.80;101603.38;697467;28;1904;-65
2021/06/08 01:10:01;;;;;;;6.05;4.88;;;;;;;20.22;46.44;101604.19;696139;28;41085;-65
2021/06/08 01:10:22;;;;;;;5.45;4.97;;;;;;;20.21;46.80;101606.09;693660;28;22405;-65
2021/06/08 01:10:43;;;;;;;5.85;5.30;;;;;;;20.20;46.89;101598.94;694172;28;22454;-65
2021/06/08 01:11:04;;;;;;;6.28;5.68;;;;;;;20.21;46.48;101608.03;692698;28;46213;-65
2021/06/08 01:11:26;;;;;;;6.00;5.50;;;;;;;20.20;46.86;101603.59;693642;28;21931;-65
2021/06/08 01:11:47;;;;;;;5.57;5.10;;;;;;;20.21;46.77;101605.28;693546;28;21596;-65
2021/06/08 01:12:09;;;;;;;6.65;5.95;;;;;;;20.22;46.47;101605.06;693093;28;47470;-65
2021/06/08 01:12:30;;;;;;;8.30;6.00;;;;;;;20.22;46.68;101604.19;696583;28;21548;-65
2021/06/08 01:12:51;;;;;;;6.40;5.35;;;;;;;20.22;46.84;101604.19;696417;28;22276;-65
2021/06/08 01:13:13;;;;;;;6.88;5.40;;;;;;;20.22;46.68;101594.09;696006;28;23418;-65
2021/06/08 01:13:34;;;;;;;6.28;5.68;;;;;;;20.22;46.69;101604.19;695905;28;47198;-65
2021/06/08 01:13:55;;;;;;;6.13;5.53;;;;;;;20.22;46.58;101596.84;697427;28;22379;-65
2021/06/08 01:14:16;;;;;;;5.63;5.03;;;;;;;20.22;46.56;101594.09;696875;28;22238;-65
2021/06/08 01:14:37;;;;;;;6.32;5.60;;;;;;;20.23;46.66;101595.75;696199;28;21541;-65
2021/06/08 01:14:58;;;;;;;6.22;5.40;;;;;;;20.22;46.93;101590.47;696911;28;24531;-65
2021/06/08 01:15:21;;;;;;;6.68;5.40;;;;;;;20.22;46.59;101591.34;696880;28;23543;-65
2021/06/08 01:15:42;;;;;;;5.93;5.32;;;;;;;20.22;46.87;101591.34;697445;28;891;-65
2021/06/08 01:16:04;;;;;;;5.70;5.20;;;;;;;20.21;47.14;101588.81;696238;28;23514;-65
2021/06/08 01:16:26;;;;;;;5.85;5.22;;;;;;;20.19;46.77;101589.03;696729;28;4231;-65
2021/06/08 01:16:47;;;;;;;6.22;5.60;;;;;;;20.19;46.83;101591.78;696480;28;22671;-65
2021/06/08 01:17:08;;;;;;;6.43;5.82;;;;;;;20.15;46.93;101596.00;696789;28;23504;-65
2021/06/08 01:17:29;;;;;;;6.22;5.72;;;;;;;20.15;47.08;101596.00;697001;28;22420;-65
2021/06/08 01:17:51;;;;;;;6.22;5.63;;;;;;;20.13;46.85;101596.25;695146;28;46364;-65
2021/06/08 01:18:12;;;;;;;6.28;5.70;;;;;;;20.12;46.96;101585.50;696886;28;21566;-65
2021/06/08 01:18:33;;;;;;;6.43;5.80;;;;;;;20.11;46.91;101592.03;696525;28;22428;-65
2021/06/08 01:18:54;;;;;;;6.40;5.78;;;;;;;20.09;46.95;101589.50;697031;28;21535;-65
2021/06/08 01:19:16;;;;;;;6.75;6.05;;;;;;;20.06;47.31;101589.97;695337;28;47183;-65
2021/06/08 01:19:37;;;;;;;6.63;6.00;;;;;;;20.05;47.44;101592.94;695382;28;46312;-65
2021/06/08 01:19:59;;;;;;;6.40;5.80;;;;;;;20.03;47.44;101595.03;697323;28;21548;-65
2021/06/08 01:20:20;;;;;;;6.60;5.90;;;;;;;20.01;47.50;101592.50;697004;28;23422;-65
2021/06/08 01:20:42;;;;;;;6.60;5.95;;;;;;;19.99;47.33;101591.88;696283;28;21298;-65
2021/06/08 01:21:23;;;;;;;6.70;5.93;;;;;;;19.97;47.26;101591.28;696303;28;1004;-65
2021/06/08 01:21:44;;;;;;;7.82;5.70;;;;;;;19.96;47.67;101590.41;692014;28;135407;-66
2021/06/08 01:22:05;;;;;;;7.03;5.82;;;;;;;19.95;47.33;101582.41;693681;28;14698;-65
2021/06/08 01:22:26;;;;;;;6.45;5.88;;;;;;;19.93;47.46;101590.84;691879;28;46306;-66
2021/06/08 01:22:48;;;;;;;6.18;5.68;;;;;;;19.94;47.39;101591.72;693237;28;22401;-65
2021/06/08 01:23:09;;;;;;;6.50;5.90;;;;;;;19.93;47.66;101588.13;693939;28;5304;-65
2021/06/08 01:23:31;;;;;;;6.32;5.82;;;;;;;19.92;47.90;101586.44;693472;28;23493;-65
2021/06/08 01:23:52;;;;;;;6.47;5.78;;;;;;;19.90;47.68;101591.28;692930;28;44191;-65
2021/06/08 01:24:13;;;;;;;6.35;5.63;;;;;;;19.90;47.52;101590.47;697038;28;21533;-65
2021/06/08 01:24:34;;;;;;;6.45;5.78;;;;;;;19.89;47.83;101583.28;696568;28;23453;-65
2021/06/08 01:24:56;;;;;;;6.30;5.80;;;;;;;19.88;47.87;101590.69;696918;28;22198;-65
2021/06/08 01:25:21;;;;;;;5.90;5.40;;;;;;;19.87;47.83;101590.91;695928;28;44433;-65
2021/06/08 01:25:42;;;;;;;6.53;5.75;;;;;;;19.86;48.12;101591.94;694026;28;93278;-65
2021/06/08 01:26:04;;;;;;;6.57;6.00;;;;;;;19.85;47.55;101588.38;696463;28;22394;-65
2021/06/08 01:26:26;;;;;;;6.20;5.63;;;;;;;19.86;47.89;101594.69;695297;28;63481;-65
2021/06/08 01:26:48;;;;;;;5.72;5.32;;;;;;;19.84;48.04;101580.38;695274;28;51614;-65
2021/06/08 01:27:09;;;;;;;6.33;5.57;;;;;;;19.83;48.17;101585.03;694876;28;47460;-65
2021/06/08 01:27:31;;;;;;;6.05;5.32;;;;;;;19.83;47.95;101587.75;692524;28;32256;-65
2021/06/08 01:27:52;;;;;;;6.40;5.72;;;;;;;19.82;48.15;101587.97;694415;28;6952;-65
2021/06/08 01:28:13;;;;;;;6.35;5.75;;;;;;;19.83;48.12;101587.75;693378;28;44381;-65
2021/06/08 01:28:37;;;;;;;5.70;5.20;;;;;;;19.84;48.01;101583.09;694119;28;23517;-65
2021/06/08 01:29:00;;;;;;;5.95;5.32;;;;;;;19.83;48.05;101587.75;692288;28;67525;-65
2021/06/08 01:29:22;;;;;;;5.57;5.07;;;;;;;19.83;47.86;101592.38;691797;28;93177;-66
2021/06/08 01:29:44;;;;;;;6.50;5.82;;;;;;;19.82;48.05;101590.72;695799;28;46320;-65
2021/06/08 01:30:07;;;;;;;6.07;5.43;;;;;;;19.82;48.00;101590.72;697166;28;22425;-65
2021/06/08 01:30:28;;;;;;;6.30;5.30;;;;;;;19.79;48.23;101590.06;694253;28;70193;-65
2021/06/08 01:30:51;;;;;;;6.07;5.30;;;;;;;19.78;48.23;101585.66;695912;28;43024;-65
2021/06/08 01:31:15;;;;;;;6.00;5.50;;;;;;;19.78;48.28;101588.41;697798;28;1697;-65
2021/06/08 01:31:37;;;;;;;5.75;5.30;;;;;;;19.77;48.57;101592.19;694896;28;68594;-65
2021/06/08 02:52:33;;;;;;;6.63;5.75;;;;;;;18.61;52.66;101590.06;686511;28;157397;-65
2021/06/08 02:52:55;;;;;;;6.50;5.90;;;;;;;18.62;52.76;101589.00;693667;28;119710;-65
2021/06/08 02:53:16;;;;;;;6.90;6.30;;;;;;;18.62;52.70;101580.78;695552;28;45708;-65
2021/06/08 02:53:38;;;;;;;6.72;6.13;;;;;;;18.65;52.82;101588.56;696965;28;23615;-65
2021/06/08 02:53:59;;;;;;;7.55;5.82;;;;;;;18.67;52.71;101591.97;695772;28;44280;-65
2021/06/08 02:54:21;;;;;;;6.17;5.67;;;;;;;18.71;52.23;101585.00;695451;28;44397;-66
2021/06/08 02:54:42;;;;;;;6.00;5.50;;;;;;;18.74;52.37;101590.06;692704;28;46623;-66
2021/06/08 02:55:05;;;;;;;6.15;5.55;;;;;;;18.77;51.91;101583.31;693548;28;22279;-66
2021/06/08 02:55:26;;;;;;;6.35;5.75;;;;;;;18.78;51.87;101587.72;691666;28;68348;-66
2021/06/08 02:55:49;;;;;;;6.38;5.88;;;;;;;18.78;51.90;101590.47;692162;28;41745;-66
2021/06/08 02:56:10;;;;;;;6.53;5.75;;;;;;;18.79;51.88;101584.78;692825;28;45253;-65
2021/06/08 02:56:31;;;;;;;6.82;5.85;;;;;;;18.79;52.10;101594.91;694026;28;16812;-65
2021/06/08 02:56:53;;;;;;;7.75;6.05;;;;;;;18.80;51.80;101588.38;696501;28;20512;-65
2021/06/08 02:57:14;;;;;;;9.82;6.20;;;;;;;18.78;52.18;101593.19;694951;28;45260;-65
2021/06/08 02:57:36;;;;;;;7.32;6.07;;;;;;;18.75;52.08;101586.28;695667;28;23412;-65
2021/06/08 02:57:59;;;;;;;8.82;6.18;;;;;;;18.76;52.30;101592.56;695257;28;45275;-65
2021/06/08 02:58:21;;;;;;;7.00;5.95;;;;;;;18.74;52.21;101590.06;694581;28;69549;-65
2021/06/08 02:58:44;;;;;;;7.88;5.60;;;;;;;18.72;52.35;101589.44;694740;28;69466;-65
2021/06/08 02:59:06;;;;;;;9.32;5.88;;;;;;;18.72;52.39;101589.44;694233;28;67502;-65
2021/06/08 02:59:29;;;;;;;8.25;6.28;;;;;;;18.72;52.33;101601.22;695071;28;45219;-65
2021/06/08 02:59:50;;;;;;;6.97;5.93;;;;;;;18.70;52.36;101592.38;694750;28;62376;-65
2021/06/08 03:00:12;;;;;;;6.88;5.88;;;;;;;18.69;52.35;101589.84;696753;28;22417;-65
2021/06/08 03:00:34;;;;;;;6.70;6.07;;;;;;;18.69;52.73;101587.13;693161;28;44537;-65
2021/06/08 03:00:55;;;;;;;6.78;6.13;;;;;;;18.68;52.52;101596.38;693362;28;14940;-65
2021/06/08 03:01:17;;;;;;;7.32;5.95;;;;;;;18.68;52.06;101602.69;693708;28;23469;-65
2021/06/08 03:01:41;;;;;;;7.22;5.85;;;;;;;18.68;52.58;101602.69;692548;28;65703;-66
2021/06/08 03:02:07;;;;;;;6.43;5.82;;;;;;;18.68;52.32;101599.09;693501;28;38188;-65
2021/06/08 03:02:29;;;;;;;9.32;6.10;;;;;;;18.67;52.61;101602.91;691072;28;135660;-65